ADDS METAR Data INFO
IDs: Format: Raw Decoded Include TAF

Data at: 2251 UTC 16 Jan 2018

PAFS 162201Z AUTO 00000KT 10SM OVC017 M10/M11 A2933 RMK AO2 SLP951 T11001111 FZRANO
PAFS 162101Z AUTO 34003KT 10SM OVC017 M11/M12 A2934 RMK AO2 FZRANO
PAFS 162044Z AUTO 00000KT 10SM OVC014 M11/M12 A2935 RMK AO2 FZRANO
PAFS 162001Z AUTO 00000KT 8SM OVC020 M12/M13 A2936 RMK AO2 SNB1945E1954 SLP962 P0000 T11171128 FZRANO
PAFS 161941Z AUTO 33003KT 10SM BKN022 M13/M14 A2936 RMK AO2 FZRANO
PAFS 161901Z AUTO 12004KT 10SM BKN110 M13/M14 A2938 RMK AO2 SLP970 T11331144 FZRANO
PAFS 161801Z AUTO 00000KT 10SM CLR M16/M17 A2939 RMK AO2 SLP974 T11561167 11156 21217 58027 FZRANO
PAFS 161701Z AUTO 00000KT 9SM FEW120 M17/M18 A2942 RMK AO2 SLP981 T11671183 FZRANO
PAFS 161601Z AUTO 00000KT 10SM FEW001 M18/M20 A2945 RMK AO2 SLP992 T11831200 FZRANO
PAFS 161538Z AUTO 29003KT 10SM FEW001 M19/M21 A2944 RMK AO2 FZRANO
PAFS 161501Z AUTO 00000KT 10SM CLR M20/M22 A2947 RMK AO2 SLP001 T12001217 58024 FZRANO
PAFS 161401Z AUTO 00000KT 10SM CLR M21/M22 A2950 RMK AO2 SLP010 T12061222 FZRANO
PAFS 161301Z AUTO 00000KT 10SM CLR M21/M23 A2952 RMK AO2 SLP017 T12111233 FZRANO
PAFS 161201Z AUTO 00000KT 4SM BR CLR M21/M23 A2955 RMK AO2 SLP028 T12061228 11150 21206 58003 FZRANO
PAFS 161101Z AUTO 00000KT 9SM CLR M20/M22 A2957 RMK AO2 SLP035 T12001222 FZRANO
PAFS 161001Z AUTO 31003KT 4SM BR CLR M19/M21 A2957 RMK AO2 SLP035 T11941211 FZRANO
PAFS 160901Z AUTO 00000KT 10SM CLR M19/M21 A2958 RMK AO2 SLP038 T11891206 50000 FZRANO
PAFS 160801Z AUTO 00000KT 5SM BR CLR M18/M20 A2958 RMK AO2 SLP037 T11781200 411781178 FZRANO
PAFS 160701Z AUTO 00000KT 10SM CLR M17/M19 A2958 RMK AO2 SLP037 T11671189 FZRANO
PAFS 160601Z AUTO 01003KT 10SM CLR M16/M18 A2958 RMK AO2 SLP038 T11611178 11083 21161 53007 FZRANO
PAFS 160501Z AUTO 00000KT 10SM CLR M16/M17 A2958 RMK AO2 SLP037 T11561167 FZRANO
PAFS 160401Z AUTO 07004KT 10SM CLR M15/M17 A2957 RMK AO2 SLP032 T11501167 FZRANO
PAFS 160301Z AUTO 09004KT 10SM CLR M15/M17 A2957 RMK AO2 SLP032 T11501167 51009 FZRANO
PAFS 160201Z AUTO 36004KT 7SM CLR M13/M14 A2956 RMK AO2 SLP030 T11331144 FZRANO
PAFS 160101Z AUTO 00000KT 10SM CLR M11/M14 A2956 RMK AO2 SLP029 T11111139 FZRANO
PAFS 160001Z AUTO 00000KT 10SM CLR M08/M12 A2954 RMK AO2 SLP024 T10831117 11083 21167 51026 FZRANO
PAFS 152301Z AUTO 00000KT 10SM CLR M10/M12 A2953 RMK AO2 SLP019 T11001122 FZRANO
PAFS 152201Z AUTO 00000KT 10SM CLR M13/M14 A2952 RMK AO2 SLP017 T11281144 FZRANO
PAFS 152101Z AUTO 00000KT 10SM CLR M15/M16 A2949 RMK AO2 SLP009 T11501161 51029 FZRANO
PAFS 152001Z AUTO 22003KT 5SM BR CLR M16/M18 A2945 RMK AO2 SLP994 T11611178 FZRANO
PAFS 151901Z AUTO 00000KT 10SM CLR M15/M17 A2942 RMK AO2 SLP985 T11501172 FZRANO
PAFS 151801Z AUTO 04003KT 9SM CLR M14/M15 A2939 RMK AO2 SLP973 T11391150 11089 21144 53013 FZRANO
PAFS 151701Z AUTO 00000KT 10SM CLR M14/M16 A2936 RMK AO2 SLP964 T11391156 FZRANO
PAFS 151601Z AUTO 08003KT 10SM CLR M12/M13 A2934 RMK AO2 SLP954 T11171128 FZRANO
PAFS 151501Z AUTO 05004KT 10SM CLR M11/M13 A2933 RMK AO2 SLP952 T11111128 50005 FZRANO
PAFS 151401Z AUTO 04006KT 10SM CLR M09/M11 A2932 RMK AO2 SLP950 T10941111 FZRANO
PAFS 151201Z AUTO 05006KT 10SM CLR M09/M11 A2931 RMK AO2 SLP946 T10891106 11083 21094 51010 FZRANO
PAFS 151101Z AUTO 05007KT 10SM CLR M09/M11 A2931 RMK AO2 SLP944 T10891106 FZRANO